Time;durP1;ratioP1;P1;durP2;ratioP2;P2;SDS_P1;SDS_P2;PMS_P1;PMS_P2;Temp;Humidity;BMP_temperature;BMP_pressure;BME280_temperature;BME280_humidity;BME280_pressure;Samples;Min_cycle;Max_cycle;Signal;HPM_P1;HPM_P2
2023/12/22 00:02:07;;;;;;;;;;;;;;;4.99;100.00;100196.81;5015110;28;19971;-79
2023/12/22 00:04:32;;;;;;;;;;;;;;;5.02;100.00;100196.63;5030064;28;19916;-76
2023/12/22 00:06:57;;;;;;;;;;;;;;;5.06;100.00;100211.44;5029806;28;19960;-81
2023/12/22 00:09:22;;;;;;;;;;;;;;;5.10;100.00;100197.00;5030500;28;19920;-79
2023/12/22 00:11:48;;;;;;;;;;;;;;;5.07;100.00;100204.28;5012643;28;19920;-79
2023/12/22 00:14:13;;;;;;;;;;;;;;;5.03;100.00;100214.28;5014860;28;20286;-81
2023/12/22 00:16:38;;;;;;;;;;;;;;;5.04;100.00;100199.16;5024078;28;20637;-82
2023/12/22 00:19:04;;;;;;;;;;;;;;;4.97;100.00;100221.81;5030047;28;19928;-80
2023/12/22 00:21:29;;;;;;;;;;;;;;;4.95;100.00;100212.13;5012269;28;20632;-82
2023/12/22 00:23:54;;;;;;;;;;;;;;;4.98;100.00;100220.88;5017947;28;19924;-78
2023/12/22 00:26:19;;;;;;;;;;;;;;;4.94;100.00;100207.78;5030381;28;20027;-81
2023/12/22 00:28:44;;;;;;;;;;;;;;;4.89;100.00;100199.22;5013307;28;20190;-84
2023/12/22 00:31:12;;;;;;;;;;;;;;;4.88;100.00;100202.84;5015167;28;19931;-79
2023/12/22 00:33:37;;;;;;;;;;;;;;;4.84;100.00;100219.09;5030815;28;19920;-84
2023/12/22 00:36:02;;;;;;;;;;;;;;;4.85;100.00;100234.94;5027997;28;19971;-80
2023/12/22 00:38:27;;;;;;;;;;;;;;;4.87;100.00;100229.53;5030776;28;19932;-83
2023/12/22 00:40:53;;;;;;;;;;;;;;;4.92;100.00;100225.63;5028756;28;19927;-84
2023/12/22 00:43:18;;;;;;;;;;;;;;;4.98;100.00;100242.16;5031538;28;19959;-78
2023/12/22 00:45:43;;;;;;;;;;;;;;;5.02;100.00;100259.66;5011391;28;20282;-83
2023/12/22 00:48:08;;;;;;;;;;;;;;;5.07;100.00;100254.84;5032166;28;20283;-79
2023/12/22 00:50:33;;;;;;;;;;;;;;;5.08;100.00;100259.22;5033806;28;20395;-80
2023/12/22 00:52:59;;;;;;;;;;;;;;;5.10;100.00;100260.84;5014661;28;20434;-80
2023/12/22 00:55:24;;;;;;;;;;;;;;;5.08;100.00;100260.09;5025975;28;19984;-82
2023/12/22 00:57:49;;;;;;;;;;;;;;;5.13;100.00;100257.13;5009544;28;20031;-82
2023/12/22 01:00:15;;;;;;;;;;;;;;;5.12;100.00;100244.78;5031068;28;19925;-81
2023/12/22 01:02:40;;;;;;;;;;;;;;;5.05;100.00;100254.97;5030241;28;20029;-79
2023/12/22 01:05:06;;;;;;;;;;;;;;;5.04;100.00;100245.28;5026722;28;19928;-83
2023/12/22 01:07:31;;;;;;;;;;;;;;;5.03;100.00;100246.22;5014837;28;19931;-82
2023/12/22 01:10:01;;;;;;;;;;;;;;;5.05;100.00;100240.78;5027199;28;19967;-82
2023/12/22 01:12:26;;;;;;;;;;;;;;;5.06;100.00;100232.72;5031031;28;20039;-82
2023/12/22 01:14:51;;;;;;;;;;;;;;;5.06;100.00;100247.81;5027341;28;19927;-82
2023/12/22 01:17:17;;;;;;;;;;;;;;;5.02;100.00;100246.34;5010444;28;19925;-84
2023/12/22 01:19:42;;;;;;;;;;;;;;;5.03;100.00;100261.34;5014931;28;19924;-82
2023/12/22 01:22:07;;;;;;;;;;;;;;;5.04;100.00;100255.91;5013521;28;20012;-83
2023/12/22 01:24:32;;;;;;;;;;;;;;;5.08;100.00;100240.59;5015229;28;19947;-82
2023/12/22 01:26:58;;;;;;;;;;;;;;;5.12;100.00;100252.75;5031153;28;19917;-83
2023/12/22 01:29:23;;;;;;;;;;;;;;;5.33;100.00;100285.13;5027208;28;19925;-79
2023/12/22 01:31:49;;;;;;;;;;;;;;;4.69;100.00;100274.94;5031247;28;19916;-79
2023/12/22 01:34:14;;;;;;;;;;;;;;;4.12;100.00;100297.03;5025957;28;20811;-79
2023/12/22 01:36:39;;;;;;;;;;;;;;;3.95;100.00;100293.56;5029323;28;19932;-83
2023/12/22 01:39:04;;;;;;;;;;;;;;;3.80;100.00;100287.34;5030515;28;20169;-80
2023/12/22 01:41:30;;;;;;;;;;;;;;;3.64;100.00;100284.75;5029876;28;20354;-83
2023/12/22 01:43:55;;;;;;;;;;;;;;;3.63;100.00;100290.13;5011901;28;19952;-81
2023/12/22 01:46:20;;;;;;;;;;;;;;;3.69;100.00;100309.22;5011583;28;19921;-83
2023/12/22 01:48:45;;;;;;;;;;;;;;;3.80;100.00;100311.25;5012238;28;20245;-83
2023/12/22 01:51:10;;;;;;;;;;;;;;;3.86;100.00;100294.09;5031218;28;20059;-82
2023/12/22 01:53:36;;;;;;;;;;;;;;;3.72;100.00;100303.72;5009370;28;19971;-82
2023/12/22 01:56:01;;;;;;;;;;;;;;;3.64;100.00;100298.00;5027918;28;19968;-83
2023/12/22 01:58:26;;;;;;;;;;;;;;;3.60;100.00;100296.47;5010980;28;20016;-84
2023/12/22 02:00:52;;;;;;;;;;;;;;;3.62;100.00;100293.72;5010757;28;19932;-84
2023/12/22 02:03:17;;;;;;;;;;;;;;;3.64;100.00;100297.13;5008371;28;19930;-84
2023/12/22 02:05:43;;;;;;;;;;;;;;;3.65;100.00;100290.88;5014948;28;19928;-85
2023/12/22 02:08:08;;;;;;;;;;;;;;;3.70;100.00;100294.13;5013294;28;19927;-82
2023/12/22 02:10:34;;;;;;;;;;;;;;;3.71;100.00;100293.19;5012455;28;19917;-84
2023/12/22 02:12:59;;;;;;;;;;;;;;;3.70;100.00;100279.06;5033559;28;19975;-84
2023/12/22 02:15:24;;;;;;;;;;;;;;;3.75;100.00;100284.13;5014748;28;20023;-83
2023/12/22 02:17:55;;;;;;;;;;;;;;;3.83;100.00;100271.25;5028048;28;19929;-85
2023/12/22 02:20:21;;;;;;;;;;;;;;;3.88;100.00;100285.09;5029824;28;19929;-84
2023/12/22 02:22:50;;;;;;;;;;;;;;;3.94;100.00;100288.34;5028653;28;19928;-83
2023/12/22 02:25:15;;;;;;;;;;;;;;;3.97;100.00;100299.66;5015335;28;19955;-83
2023/12/22 02:27:51;;;;;;;;;;;;;;;4.01;100.00;100333.03;5014520;28;20331;-83
2023/12/22 02:30:23;;;;;;;;;;;;;;;3.96;100.00;100299.72;5026678;28;19913;-85
2023/12/22 02:32:48;;;;;;;;;;;;;;;3.96;100.00;100289.09;5033438;28;19924;-83
2023/12/22 02:35:14;;;;;;;;;;;;;;;3.98;100.00;100284.56;5033564;28;19917;-83
2023/12/22 02:37:41;;;;;;;;;;;;;;;4.01;100.00;100271.09;5017344;28;19925;-83
2023/12/22 02:40:07;;;;;;;;;;;;;;;3.98;100.00;100260.66;5016022;28;19991;-82
2023/12/22 02:42:32;;;;;;;;;;;;;;;4.04;100.00;100255.81;5017255;28;20366;-83
2023/12/22 02:44:58;;;;;;;;;;;;;;;4.08;100.00;100263.59;5012430;28;20447;-83
2023/12/22 02:47:23;;;;;;;;;;;;;;;4.08;100.00;100256.50;5032221;28;19921;-79
2023/12/22 02:49:48;;;;;;;;;;;;;;;4.08;100.00;100261.81;5035228;28;20318;-83
2023/12/22 02:52:14;;;;;;;;;;;;;;;4.11;100.00;100252.81;5017856;28;19925;-84
2023/12/22 02:54:39;;;;;;;;;;;;;;;4.25;100.00;100263.44;5012404;28;19925;-81
2023/12/22 02:57:05;;;;;;;;;;;;;;;4.27;100.00;100255.38;5031556;28;20022;-80
2023/12/22 02:59:31;;;;;;;;;;;;;;;4.31;100.00;100265.72;5032297;28;19968;-81
2023/12/22 03:01:56;;;;;;;;;;;;;;;4.34;100.00;100273.53;5033458;28;19936;-82
2023/12/22 03:04:21;;;;;;;;;;;;;;;4.43;100.00;100264.13;5031997;28;19921;-81
2023/12/22 03:06:46;;;;;;;;;;;;;;;4.52;100.00;100246.75;5015040;28;20338;-82
2023/12/22 03:09:11;;;;;;;;;;;;;;;4.59;100.00;100248.09;5017525;28;19928;-82
2023/12/22 03:11:37;;;;;;;;;;;;;;;4.69;100.00;100253.69;5036420;28;19924;-82
2023/12/22 03:14:02;;;;;;;;;;;;;;;4.78;100.00;100266.41;5032217;28;20541;-81
2023/12/22 03:16:27;;;;;;;;;;;;;;;4.95;100.00;100269.78;5015288;28;20023;-81
2023/12/22 03:18:52;;;;;;;;;;;;;;;5.09;100.00;100267.13;5033369;28;20015;-80
2023/12/22 03:21:21;;;;;;;;;;;;;;;5.19;100.00;100246.09;5016285;28;19920;-79
2023/12/22 03:23:46;;;;;;;;;;;;;;;5.29;100.00;100261.47;5032405;28;19921;-82
2023/12/22 03:26:11;;;;;;;;;;;;;;;5.22;100.00;100237.03;5014950;28;19924;-80
2023/12/22 03:28:38;;;;;;;;;;;;;;;5.31;100.00;100268.41;5017988;28;19951;-80
2023/12/22 03:31:03;;;;;;;;;;;;;;;5.27;100.00;100266.03;5031489;28;20031;-81
2023/12/22 03:33:28;;;;;;;;;;;;;;;5.26;100.00;100270.50;5017306;28;19921;-82
2023/12/22 03:35:53;;;;;;;;;;;;;;;5.15;100.00;100284.50;5013636;28;19931;-83
2023/12/22 03:38:19;;;;;;;;;;;;;;;5.10;100.00;100295.44;5022000;28;20406;-83
2023/12/22 03:40:44;;;;;;;;;;;;;;;5.19;100.00;100290.47;5029722;28;20299;-81
2023/12/22 03:43:10;;;;;;;;;;;;;;;5.19;100.00;100266.50;5013526;28;19932;-80
2023/12/22 03:45:35;;;;;;;;;;;;;;;5.26;100.00;100265.19;5012481;28;19927;-81
2023/12/22 03:48:00;;;;;;;;;;;;;;;5.38;100.00;100267.06;5027859;28;20133;-81
2023/12/22 03:50:25;;;;;;;;;;;;;;;5.45;100.00;100272.81;5031742;28;20050;-81
2023/12/22 03:52:51;;;;;;;;;;;;;;;5.47;100.00;100286.03;5011767;28;19925;-82
2023/12/22 03:55:17;;;;;;;;;;;;;;;5.52;100.00;100283.91;5027696;28;19928;-80
2023/12/22 03:57:43;;;;;;;;;;;;;;;5.56;100.00;100293.41;5011952;28;19963;-82
2023/12/22 04:00:08;;;;;;;;;;;;;;;5.61;100.00;100280.66;5025659;28;20345;-81
2023/12/22 04:02:33;;;;;;;;;;;;;;;5.71;100.00;100280.91;5010976;28;19928;-81
2023/12/22 04:04:59;;;;;;;;;;;;;;;5.79;100.00;100283.91;5030212;28;19966;-77
2023/12/22 04:07:24;;;;;;;;;;;;;;;5.84;100.00;100283.59;5028003;28;20213;-82
2023/12/22 04:09:49;;;;;;;;;;;;;;;5.89;100.00;100286.81;5012358;28;19968;-80
2023/12/22 04:12:14;;;;;;;;;;;;;;;5.96;100.00;100284.59;5013515;28;20015;-81
2023/12/22 04:14:39;;;;;;;;;;;;;;;6.02;100.00;100286.88;5011338;28;19955;-81
2023/12/22 04:17:05;;;;;;;;;;;;;;;6.17;100.00;100281.44;5007285;28;19927;-80
2023/12/22 04:19:30;;;;;;;;;;;;;;;6.21;100.00;100277.63;5014163;28;19951;-79
2023/12/22 04:21:55;;;;;;;;;;;;;;;6.28;100.00;100278.91;5029003;28;20093;-79
2023/12/22 04:24:20;;;;;;;;;;;;;;;6.29;100.00;100277.94;5007176;28;20024;-78
2023/12/22 04:26:45;;;;;;;;;;;;;;;6.30;100.00;100282.31;5029502;28;19928;-83
2023/12/22 04:29:11;;;;;;;;;;;;;;;6.42;100.00;100286.78;5011467;28;20039;-78
2023/12/22 04:31:36;;;;;;;;;;;;;;;6.44;100.00;100276.03;5029588;28;19920;-78
2023/12/22 04:34:01;;;;;;;;;;;;;;;6.49;100.00;100275.72;5009315;28;19923;-78
2023/12/22 04:36:26;;;;;;;;;;;;;;;6.47;100.00;100285.63;5034055;28;19982;-76
2023/12/22 04:38:51;;;;;;;;;;;;;;;6.51;100.00;100293.28;5035132;28;22127;-78
2023/12/22 04:41:17;;;;;;;;;;;;;;;6.55;100.00;100288.63;5032577;28;20035;-78
2023/12/22 04:43:42;;;;;;;;;;;;;;;6.57;100.00;100298.22;5032182;28;19925;-80
2023/12/22 04:46:07;;;;;;;;;;;;;;;6.63;100.00;100301.41;5010039;28;19929;-79
2023/12/22 04:48:33;;;;;;;;;;;;;;;6.64;100.00;100309.31;5029853;28;19920;-78
2023/12/22 04:50:58;;;;;;;;;;;;;;;6.70;100.00;100308.88;5029259;28;20426;-79
2023/12/22 04:53:23;;;;;;;;;;;;;;;6.66;100.00;100301.22;5014274;28;19975;-79
2023/12/22 04:55:48;;;;;;;;;;;;;;;6.65;100.00;100316.34;5026465;28;19983;-79
2023/12/22 04:58:14;;;;;;;;;;;;;;;6.64;100.00;100325.31;5024877;28;19929;-78
2023/12/22 05:00:39;;;;;;;;;;;;;;;6.67;100.00;100326.94;5012699;28;19939;-79
2023/12/22 05:03:04;;;;;;;;;;;;;;;6.64;100.00;100335.97;5013460;28;20011;-79
2023/12/22 05:05:29;;;;;;;;;;;;;;;6.71;100.00;100320.41;5013727;28;20094;-79
2023/12/22 05:07:54;;;;;;;;;;;;;;;6.77;100.00;100319.13;5027517;28;19966;-82
2023/12/22 05:10:20;;;;;;;;;;;;;;;6.69;100.00;100327.69;5032963;28;19924;-78
2023/12/22 05:12:45;;;;;;;;;;;;;;;6.66;100.00;100320.72;5010934;28;20120;-80
2023/12/22 05:15:10;;;;;;;;;;;;;;;6.61;100.00;100312.22;5027532;28;19961;-79
2023/12/22 05:17:35;;;;;;;;;;;;;;;6.55;100.00;100320.63;5027443;28;20335;-79
2023/12/22 05:20:00;;;;;;;;;;;;;;;6.56;100.00;100317.00;5030056;28;20283;-81
2023/12/22 05:22:26;;;;;;;;;;;;;;;6.66;100.00;100323.38;5031802;28;20378;-79
2023/12/22 05:24:51;;;;;;;;;;;;;;;6.56;100.00;100319.66;5024234;28;20287;-78
2023/12/22 05:27:16;;;;;;;;;;;;;;;6.55;100.00;100315.28;5029424;28;19925;-82
2023/12/22 05:29:41;;;;;;;;;;;;;;;6.57;100.00;100322.22;5015504;28;19921;-82
2023/12/22 05:32:07;;;;;;;;;;;;;;;6.46;100.00;100303.47;5008402;28;19921;-79
2023/12/22 05:34:32;;;;;;;;;;;;;;;6.61;100.00;100317.53;5014873;28;19952;-78
2023/12/22 05:36:57;;;;;;;;;;;;;;;6.63;100.00;100306.75;5012877;28;19921;-81
2023/12/22 05:39:22;;;;;;;;;;;;;;;6.68;100.00;100307.28;5011342;28;19971;-79
2023/12/22 05:41:48;;;;;;;;;;;;;;;6.64;100.00;100319.97;5029466;28;19921;-83
2023/12/22 05:44:13;;;;;;;;;;;;;;;6.70;100.00;100306.22;5017492;28;20633;-79
2023/12/22 05:46:38;;;;;;;;;;;;;;;6.74;100.00;100320.22;5031277;28;19920;-82
2023/12/22 05:49:03;;;;;;;;;;;;;;;6.73;100.00;100306.00;5017155;28;19936;-82
2023/12/22 05:51:29;;;;;;;;;;;;;;;6.74;100.00;100297.03;5033741;28;20328;-83
2023/12/22 05:53:54;;;;;;;;;;;;;;;6.71;100.00;100299.91;5015524;28;19920;-81
2023/12/22 05:56:20;;;;;;;;;;;;;;;6.70;100.00;100297.38;5020449;28;19920;-82
2023/12/22 05:58:45;;;;;;;;;;;;;;;6.70;100.00;100313.38;5033356;28;19968;-81
2023/12/22 06:01:18;;;;;;;;;;;;;;;6.74;100.00;100321.03;5029630;28;20429;-82
2023/12/22 06:03:43;;;;;;;;;;;;;;;6.79;100.00;100311.88;5031416;28;20632;-81
2023/12/22 06:06:08;;;;;;;;;;;;;;;6.76;100.00;100310.25;5031092;28;19962;-82
2023/12/22 06:08:33;;;;;;;;;;;;;;;6.75;100.00;100319.25;5010425;28;20027;-81
2023/12/22 06:10:59;;;;;;;;;;;;;;;6.83;100.00;100303.53;5014972;28;19925;-79
2023/12/22 06:13:24;;;;;;;;;;;;;;;6.94;100.00;100316.09;5032487;28;19916;-83
2023/12/22 06:15:49;;;;;;;;;;;;;;;6.90;100.00;100307.47;5034370;28;19962;-78
2023/12/22 06:18:15;;;;;;;;;;;;;;;6.90;100.00;100310.16;5032463;28;20426;-81
2023/12/22 06:20:40;;;;;;;;;;;;;;;6.87;100.00;100305.03;5009839;28;20872;-82
2023/12/22 06:23:05;;;;;;;;;;;;;;;6.83;100.00;100305.34;5032682;28;22120;-82
2023/12/22 06:25:30;;;;;;;;;;;;;;;6.88;100.00;100300.56;5014548;28;20418;-82
2023/12/22 06:27:55;;;;;;;;;;;;;;;6.89;100.00;100296.91;5032954;28;20421;-84
2023/12/22 06:30:21;;;;;;;;;;;;;;;6.90;100.00;100303.94;5032649;28;20367;-83
2023/12/22 06:32:46;;;;;;;;;;;;;;;6.87;100.00;100322.88;5034536;28;20438;-80
2023/12/22 06:35:11;;;;;;;;;;;;;;;6.95;100.00;100322.31;5016337;28;20253;-82
2023/12/22 06:37:36;;;;;;;;;;;;;;;6.88;100.00;100330.75;5031425;28;19936;-85
2023/12/22 06:40:02;;;;;;;;;;;;;;;6.83;100.00;100334.72;5014998;28;20023;-81
2023/12/22 06:42:27;;;;;;;;;;;;;;;6.67;100.00;100337.59;5014998;28;19921;-86
2023/12/22 06:44:52;;;;;;;;;;;;;;;6.63;100.00;100346.78;5017304;28;20039;-85
2023/12/22 06:47:17;;;;;;;;;;;;;;;6.63;100.00;100344.94;5016080;28;19921;-79
2023/12/22 06:49:43;;;;;;;;;;;;;;;6.65;100.00;100315.50;5009938;28;19920;-78
2023/12/22 06:52:08;;;;;;;;;;;;;;;6.58;100.00;100318.59;5028277;28;19969;-79
2023/12/22 06:54:34;;;;;;;;;;;;;;;6.52;100.00;100305.69;5014412;28;19921;-79
2023/12/22 06:56:59;;;;;;;;;;;;;;;6.48;100.00;100303.34;5028716;28;19921;-79
2023/12/22 06:59:24;;;;;;;;;;;;;;;6.50;100.00;100309.41;5032047;28;19982;-79
2023/12/22 07:01:49;;;;;;;;;;;;;;;6.50;100.00;100310.25;5023639;28;19925;-79
2023/12/22 07:04:15;;;;;;;;;;;;;;;6.55;100.00;100302.78;5013844;28;19924;-80
2023/12/22 07:06:41;;;;;;;;;;;;;;;6.55;100.00;100297.47;5013845;28;19948;-79
2023/12/22 07:09:16;;;;;;;;;;;;;;;6.59;100.00;100293.63;5031938;28;20602;-80
2023/12/22 07:11:42;;;;;;;;;;;;;;;6.73;100.00;100298.00;5033913;28;19921;-80
2023/12/22 07:14:07;;;;;;;;;;;;;;;6.81;100.00;100285.94;5028915;28;19928;-79
2023/12/22 07:16:32;;;;;;;;;;;;;;;6.87;100.00;100282.84;5032426;28;19920;-79
2023/12/22 07:18:58;;;;;;;;;;;;;;;6.86;100.00;100287.31;5034255;28;19929;-79
2023/12/22 07:21:23;;;;;;;;;;;;;;;6.90;100.00;100296.81;5033901;28;20302;-79
2023/12/22 07:23:48;;;;;;;;;;;;;;;6.86;100.00;100303.31;5012988;28;20300;-79
2023/12/22 07:26:13;;;;;;;;;;;;;;;6.97;100.00;100301.72;5013884;28;20268;-79
2023/12/22 07:28:38;;;;;;;;;;;;;;;6.95;100.00;100301.81;5015743;28;20367;-79
2023/12/22 07:31:05;;;;;;;;;;;;;;;7.01;100.00;100311.22;5031495;28;19966;-78
2023/12/22 07:33:30;;;;;;;;;;;;;;;7.06;100.00;100319.72;5032985;28;20477;-80
2023/12/22 07:35:55;;;;;;;;;;;;;;;7.04;100.00;100319.84;5015504;28;19921;-77
2023/12/22 07:38:21;;;;;;;;;;;;;;;7.03;100.00;100311.94;5032087;28;20084;-78
2023/12/22 07:40:46;;;;;;;;;;;;;;;7.05;100.00;100312.69;5012796;28;20259;-77
2023/12/22 07:43:11;;;;;;;;;;;;;;;7.14;100.00;100313.84;5012419;28;19921;-80
2023/12/22 07:45:37;;;;;;;;;;;;;;;7.12;100.00;100308.59;5014105;28;19921;-78
2023/12/22 07:48:02;;;;;;;;;;;;;;;7.16;100.00;100314.56;5014351;28;20999;-78
2023/12/22 07:50:28;;;;;;;;;;;;;;;7.22;100.00;100310.63;5031849;28;20019;-78
2023/12/22 07:52:53;;;;;;;;;;;;;;;7.19;100.00;100306.34;5015640;28;20019;-78
2023/12/22 07:55:18;;;;;;;;;;;;;;;7.31;100.00;100302.78;5028969;28;19920;-79
2023/12/22 07:57:45;;;;;;;;;;;;;;;7.29;100.00;100307.41;5010729;28;20079;-79
2023/12/22 08:00:10;;;;;;;;;;;;;;;7.34;100.00;100299.03;5011065;28;20339;-79
2023/12/22 08:02:35;;;;;;;;;;;;;;;7.37;100.00;100304.16;5010283;28;20011;-79
2023/12/22 08:05:00;;;;;;;;;;;;;;;7.34;100.00;100301.72;5005269;28;19921;-79
2023/12/22 08:07:26;;;;;;;;;;;;;;;7.38;100.00;100307.69;5009188;28;19920;-79
2023/12/22 08:09:51;;;;;;;;;;;;;;;7.38;100.00;100299.69;5026339;28;19932;-77
2023/12/22 08:12:16;;;;;;;;;;;;;;;7.47;100.00;100305.19;5003866;28;20035;-78
2023/12/22 08:14:41;;;;;;;;;;;;;;;7.46;100.00;100303.50;5009816;28;20152;-79
2023/12/22 08:17:07;;;;;;;;;;;;;;;7.57;100.00;100296.50;5009946;28;19925;-79
2023/12/22 08:19:32;;;;;;;;;;;;;;;7.54;100.00;100288.72;5007051;28;20039;-78
2023/12/22 08:21:57;;;;;;;;;;;;;;;7.65;100.00;100294.97;5011992;28;19927;-77
2023/12/22 08:24:22;;;;;;;;;;;;;;;7.60;100.00;100269.56;5021952;28;19927;-79
2023/12/22 08:26:47;;;;;;;;;;;;;;;7.60;100.00;100275.75;5007728;28;20081;-78
2023/12/22 08:29:13;;;;;;;;;;;;;;;7.74;100.00;100288.09;5022740;28;19921;-79
2023/12/22 08:31:38;;;;;;;;;;;;;;;7.78;100.00;100286.03;5007153;28;19943;-77
2023/12/22 08:34:04;;;;;;;;;;;;;;;7.77;100.00;100295.88;5025468;28;19927;-79
2023/12/22 08:36:29;;;;;;;;;;;;;;;7.73;100.00;100304.22;5024820;28;19924;-79
2023/12/22 08:38:54;;;;;;;;;;;;;;;7.72;100.00;100295.38;5007458;28;19928;-79
2023/12/22 08:41:19;;;;;;;;;;;;;;;7.62;100.00;100279.19;5026321;28;19967;-80
2023/12/22 08:43:45;;;;;;;;;;;;;;;7.61;100.00;100260.56;5027524;28;19921;-78
2023/12/22 08:46:11;;;;;;;;;;;;;;;7.60;100.00;100256.19;5006487;28;20439;-77
2023/12/22 08:48:37;;;;;;;;;;;;;;;7.58;100.00;100259.00;5022808;28;20375;-78
2023/12/22 08:51:02;;;;;;;;;;;;;;;7.63;100.00;100263.97;5008397;28;19928;-80
2023/12/22 08:53:30;;;;;;;;;;;;;;;7.69;100.00;100247.50;5008110;28;19931;-79
2023/12/22 08:55:56;;;;;;;;;;;;;;;7.63;100.00;100272.88;5025635;28;19921;-77
2023/12/22 08:58:21;;;;;;;;;;;;;;;7.69;100.00;100268.88;5021936;28;19969;-79
2023/12/22 09:00:46;;;;;;;;;;;;;;;7.66;100.00;100253.06;5024691;28;20031;-77
2023/12/22 09:03:11;;;;;;;;;;;;;;;7.72;100.00;100251.75;5023921;28;19959;-79
2023/12/22 09:05:37;;;;;;;;;;;;;;;7.64;100.00;100247.84;5025659;28;19928;-79
2023/12/22 09:08:02;;;;;;;;;;;;;;;7.65;100.00;100264.72;5028030;28;19932;-79
2023/12/22 09:10:27;;;;;;;;;;;;;;;7.75;100.00;100272.91;5022355;28;19921;-77
2023/12/22 09:12:52;;;;;;;;;;;;;;;7.90;100.00;100282.44;5021594;28;20267;-78
2023/12/22 09:15:18;;;;;;;;;;;;;;;8.01;100.00;100278.09;5018184;28;20036;-81
2023/12/22 09:17:43;;;;;;;;;;;;;;;7.89;100.00;100253.16;5021537;28;19921;-79
2023/12/22 09:20:08;;;;;;;;;;;;;;;7.76;100.00;100240.72;5024122;28;19924;-77
2023/12/22 09:22:34;;;;;;;;;;;;;;;7.93;100.00;100271.53;5021385;28;20275;-77
2023/12/22 09:24:59;;;;;;;;;;;;;;;7.89;100.00;100269.19;5012601;28;20038;-77
2023/12/22 09:27:28;;;;;;;;;;;;;;;7.83;100.00;100253.59;5028192;28;20131;-77
2023/12/22 09:29:54;;;;;;;;;;;;;;;7.87;100.00;100261.28;5019038;28;19928;-75
2023/12/22 09:32:19;;;;;;;;;;;;;;;7.90;100.00;100263.75;5026102;28;19920;-77
2023/12/22 09:34:44;;;;;;;;;;;;;;;7.96;100.00;100271.28;5023069;28;19961;-79
2023/12/22 09:37:09;;;;;;;;;;;;;;;7.85;100.00;100249.00;5023868;28;19925;-80
2023/12/22 09:39:34;;;;;;;;;;;;;;;7.89;100.00;100256.69;5016361;28;20033;-78
2023/12/22 09:42:00;;;;;;;;;;;;;;;7.88;100.00;100249.63;5009416;28;19920;-79
2023/12/22 09:44:25;;;;;;;;;;;;;;;7.87;100.00;100253.28;5031962;28;20055;-79
2023/12/22 09:46:50;;;;;;;;;;;;;;;7.84;100.00;100241.94;5029243;28;19928;-81
2023/12/22 09:49:20;;;;;;;;;;;;;;;7.83;100.00;100246.47;5015165;28;19952;-79
2023/12/22 09:51:45;;;;;;;;;;;;;;;7.76;100.00;100242.53;5023402;28;20000;-80
2023/12/22 09:54:10;;;;;;;;;;;;;;;7.73;100.00;100230.28;5030400;28;19932;-80
2023/12/22 09:56:37;;;;;;;;;;;;;;;7.76;100.00;100230.03;5019758;28;20283;-80
2023/12/22 09:59:02;;;;;;;;;;;;;;;7.90;100.00;100231.66;5007799;28;19932;-79
2023/12/22 10:01:27;;;;;;;;;;;;;;;7.99;100.00;100248.81;5023544;28;19925;-78
2023/12/22 10:03:53;;;;;;;;;;;;;;;8.01;100.00;100249.56;5025344;28;19920;-78
2023/12/22 10:06:18;;;;;;;;;;;;;;;8.09;100.00;100252.47;5005792;28;20009;-82
2023/12/22 10:08:43;;;;;;;;;;;;;;;8.12;100.00;100246.06;5011632;28;20381;-79
2023/12/22 10:11:08;;;;;;;;;;;;;;;8.12;100.00;100243.38;5007613;28;20299;-79
2023/12/22 10:13:34;;;;;;;;;;;;;;;8.18;100.00;100247.38;5026243;28;19920;-80
2023/12/22 10:15:59;;;;;;;;;;;;;;;8.20;100.00;100240.09;5026961;28;19920;-79
2023/12/22 10:18:24;;;;;;;;;;;;;;;8.28;100.00;100250.19;5026156;28;19921;-78
2023/12/22 10:20:50;;;;;;;;;;;;;;;8.32;100.00;100240.97;5006466;28;20371;-79
2023/12/22 10:23:15;;;;;;;;;;;;;;;8.35;100.00;100249.59;5017898;28;20307;-79
2023/12/22 10:25:40;;;;;;;;;;;;;;;8.37;100.00;100244.16;5014997;28;19961;-78
2023/12/22 10:28:05;;;;;;;;;;;;;;;8.41;100.00;100232.25;5024330;28;19923;-77
2023/12/22 10:30:32;;;;;;;;;;;;;;;8.46;100.00;100245.25;4999889;28;19927;-77
2023/12/22 10:32:57;;;;;;;;;;;;;;;8.54;100.00;100229.47;5025978;28;20166;-77
2023/12/22 10:35:23;;;;;;;;;;;;;;;8.58;100.00;100235.44;5029375;28;19948;-78
2023/12/22 10:37:51;;;;;;;;;;;;;;;8.67;100.00;100232.88;5026205;28;19980;-80
2023/12/22 10:40:16;;;;;;;;;;;;;;;8.69;100.00;100230.09;5029094;28;19928;-77
2023/12/22 10:42:41;;;;;;;;;;;;;;;8.68;100.00;100239.91;5026929;28;19951;-76
2023/12/22 10:45:07;;;;;;;;;;;;;;;8.70;100.00;100240.66;5030900;28;19925;-78
2023/12/22 10:47:32;;;;;;;;;;;;;;;8.78;100.00;100250.75;5011275;28;19928;-77
2023/12/22 10:50:01;;;;;;;;;;;;;;;8.82;100.00;100249.53;5025328;28;20411;-78
2023/12/22 10:52:26;;;;;;;;;;;;;;;8.87;100.00;100242.97;5030437;28;20004;-79
2023/12/22 10:54:51;;;;;;;;;;;;;;;9.00;100.00;100252.56;5031799;28;20194;-78
2023/12/22 10:57:20;;;;;;;;;;;;;;;8.98;100.00;100249.16;5026999;28;19927;-81
2023/12/22 10:59:46;;;;;;;;;;;;;;;8.99;100.00;100239.31;5026183;28;20378;-82
2023/12/22 11:02:14;;;;;;;;;;;;;;;9.04;100.00;100238.94;5013892;28;20452;-80
2023/12/22 11:04:39;;;;;;;;;;;;;;;9.05;100.00;100251.34;5029911;28;20350;-80
2023/12/22 11:07:04;;;;;;;;;;;;;;;9.02;100.00;100240.88;5031631;28;19921;-78
2023/12/22 11:09:31;;;;;;;;;;;;;;;9.02;100.00;100247.06;5029218;28;19921;-78
2023/12/22 11:11:56;;;;;;;;;;;;;;;9.06;100.00;100245.84;5029193;28;19921;-77
2023/12/22 11:14:21;;;;;;;;;;;;;;;9.08;100.00;100246.56;5031256;28;20213;-79
2023/12/22 11:16:48;;;;;;;;;;;;;;;9.15;100.00;100246.91;5021173;28;19936;-76
2023/12/22 11:19:13;;;;;;;;;;;;;;;9.08;100.00;100246.56;5028481;28;20316;-80
2023/12/22 11:21:39;;;;;;;;;;;;;;;9.11;100.00;100238.28;5010741;28;19920;-78
2023/12/22 11:24:05;;;;;;;;;;;;;;;9.20;100.00;100233.19;5032425;28;19924;-78
2023/12/22 11:26:30;;;;;;;;;;;;;;;9.18;100.00;100245.84;5029229;28;20298;-80
2023/12/22 11:28:55;;;;;;;;;;;;;;;9.17;100.00;100228.91;5033783;28;20278;-79
2023/12/22 11:31:20;;;;;;;;;;;;;;;9.30;100.00;100237.66;5035626;28;19940;-78
2023/12/22 11:33:47;;;;;;;;;;;;;;;9.26;100.00;100238.88;5010973;28;19917;-79
2023/12/22 11:36:13;;;;;;;;;;;;;;;9.29;100.00;100237.75;5028657;28;19967;-77
2023/12/22 11:38:41;;;;;;;;;;;;;;;9.27;100.00;100231.69;5032597;28;20416;-78
2023/12/22 11:41:07;;;;;;;;;;;;;;;9.22;100.00;100231.22;5014719;28;19966;-80
2023/12/22 11:43:33;;;;;;;;;;;;;;;9.20;100.00;100244.72;5008227;28;19917;-77
2023/12/22 11:46:04;;;;;;;;;;;;;;;9.14;100.00;100221.13;5033692;28;20328;-79
2023/12/22 11:48:29;;;;;;;;;;;;;;;9.24;100.00;100231.94;5027560;28;19928;-78
2023/12/22 11:50:55;;;;;;;;;;;;;;;9.28;100.00;100234.25;5008870;28;19921;-79
2023/12/22 11:53:20;;;;;;;;;;;;;;;9.23;100.00;100217.69;5025519;28;19920;-78
2023/12/22 11:56:13;;;;;;;;;;;;;;;9.37;100.00;100227.28;5025518;28;19920;-84
2023/12/22 11:58:51;;;;;;;;;;;;;;;9.36;100.00;100219.38;5025642;28;19943;-78
2023/12/22 12:01:17;;;;;;;;;;;;;;;9.28;100.00;100223.53;5010157;28;20348;-80
2023/12/22 12:03:52;;;;;;;;;;;;;;;9.22;100.00;100218.66;5026479;28;19917;-82
2023/12/22 12:06:30;;;;;;;;;;;;;;;9.21;100.00;100216.97;5014076;28;19921;-78
2023/12/22 12:09:02;;;;;;;;;;;;;;;9.33;100.00;100208.91;5032122;28;19932;-78
2023/12/22 12:11:46;;;;;;;;;;;;;;;9.30;100.00;100212.66;5010725;28;19924;-78
2023/12/22 12:14:13;;;;;;;;;;;;;;;9.41;100.00;100209.97;5027044;28;19927;-78
2023/12/22 12:16:38;;;;;;;;;;;;;;;9.53;100.00;100209.94;5013758;28;19928;-80
2023/12/22 12:19:07;;;;;;;;;;;;;;;9.60;100.00;100203.06;5023196;28;19970;-78
2023/12/22 12:21:32;;;;;;;;;;;;;;;9.52;100.00;100201.03;5010216;28;19975;-79
2023/12/22 12:23:57;;;;;;;;;;;;;;;9.63;100.00;100189.41;5022861;28;20043;-80
2023/12/22 12:26:22;;;;;;;;;;;;;;;9.67;100.00;100190.84;5028206;28;20303;-78
2023/12/22 12:28:48;;;;;;;;;;;;;;;9.70;100.00;100174.50;5004466;28;20358;-78